Αναφορές METAR

 

LGKZ - Kozani (civ/Army, Greece
Distance from station: SW 41km
Updated: 17/08/2022 03:50

 Wind from NNW
Wind: NNW 7 km/h
Temperature: 19°C
Dew Point: 13°C
Humidity: 68%
Barometer: 1015 hPa
2022/08/17 00:50 LGKZ 170050Z AUTO 34004KT 290V020 //// // ////// 19/13 Q1015 RE//
LGTS - Thessaloniki/Mik, Greece
Distance from station: E 64km
Updated: 17/08/2022 03:50
Clear
Clear
 Wind from varies
Wind: varies 6 km/h
Temperature: 20°C
Dew Point: 20°C
Humidity: 100%
Barometer: 1010 hPa
Summary: Clear
Visibility: greater than 10 km
2022/08/17 00:50 LGTS 170050Z VRB03KT CAVOK 20/20 Q1010 NOSIG
 
LGIO - Ioannina, Greece
Distance from station: SW 149km
Updated: 17/08/2022 03:50

 Wind from varies
Wind: varies 4 km/h
Temperature: 16°C
Dew Point: 13°C
Humidity: 83%
Barometer: 1015 hPa
2022/08/17 00:50 LGIO 170050Z AUTO VRB02KT //// // ////// 16/13 Q1015 RE//
LGBL - Nea Anchialos, Greece
Distance from station: SSE 154km
Updated: 17/08/2022 03:50
Clear
Clear
 Wind from W
Wind: W 7 km/h
Temperature: 24°C
Dew Point: 16°C
Humidity: 61%
Barometer: 1010 hPa
Summary: Clear
Visibility: greater than 10 km
2022/08/17 00:50 LGBL 170050Z 28004KT CAVOK 24/16 Q1010
 
LGSK - Skiathos Island, Greece
Distance from station: SE 185km
Updated: 16/08/2022 22:20
NOT Current
Few Clouds
Few Clouds
 Wind from varies
Wind: varies 6 km/h
Temperature: 25°C
Dew Point: 16°C
Humidity: 57%
Barometer: 1010 hPa
Clouds: Few Clouds
Visibility: 10 km
Cloud details: Few Clouds 914 m
2022/08/16 19:20 LGSK 161920Z VRB03KT 9999 FEW030 25/16 Q1010
LGKV - Kavala/Chrisoupo, Greece
Distance from station: ENE 208km
Updated: 16/08/2022 22:20
NOT Current
Few Clouds
Few Clouds
 Wind from calm
Wind: Calm
Temperature: 25°C
Dew Point: 20°C
Humidity: 74%
Barometer: 1010 hPa
Clouds: Few Clouds
Visibility: 10 km
Cloud details: Few Clouds 610 m
2022/08/16 19:20 LGKV 161920Z 00000KT 9999 FEW020TCU 25/20 Q1010
 
LGPZ - Preveza/Aktion, Greece
Distance from station: SW 217km
Updated: 17/08/2022 03:50
Few Clouds
Few Clouds
 Wind from NNE
Wind: NNE 15 km/h
Temperature: 24°C
Dew Point: 20°C
Humidity: 78%
Barometer: 1012 hPa
Clouds: Few Clouds
Visibility: 10 km
Cloud details: Few Clouds 305 m
2022/08/17 00:50 LGPZ 170050Z 03008KT 9999 FEW010 24/20 Q1012
LGKR - Ioannis Kapodist, Greece
Distance from station: WSW 219km
Updated: 17/08/2022 03:50
Partly cloudy
Partly cloudy
 Wind from calm
Wind: Calm
Temperature: 24°C
Dew Point: 22°C
Humidity: 89%
Barometer: 1011 hPa
Clouds: Partly cloudy
Visibility: 10 km
Cloud details: Few Clouds 366 m
Partly cloudy 549 m
2022/08/17 00:50 LGKR 170050Z 00000KT 9999 FEW012 SCT018 24/22 Q1011 NOSIG
 
LGSY - Skiros, Greece
Distance from station: SE 261km
Updated: 16/08/2022 21:50
NOT Current
Clear
Clear
 Wind from varies
Wind: varies 4 km/h
Temperature: 27°C
Heat Index: 27°C
Dew Point: 15°C
Humidity: 48%
Barometer: 1010 hPa
Summary: Clear
Visibility: greater than 10 km
2022/08/16 18:50 LGSY 161850Z VRB02KT CAVOK 27/15 Q1010 RMK SCT080 BLU
LGLM - Limnos Island Ar, Greece
Distance from station: ESE 266km
Updated: 17/08/2022 03:50
Clear
Clear
 Wind from calm
Wind: Calm
Temperature: 22°C
Dew Point: 20°C
Humidity: 88%
Barometer: 1010 hPa
Summary: Clear
Visibility: greater than 10 km
2022/08/17 00:50 LGLM 170050Z 00000KT CAVOK 22/20 Q1010
 
LGRX - Araxos (civ/Afb), Greece
Distance from station: SSW 271km
Updated: 17/08/2022 03:50
Clear
Clear
 Wind from calm
Wind: Calm
Temperature: 22°C
Dew Point: 20°C
Humidity: 88%
Barometer: 1012 hPa
Summary: Clear
Visibility: greater than 10 km
2022/08/17 00:50 LGRX 170050Z 00000KT CAVOK 22/20 Q1012
LGEL - Elefsis (hel-Afb, Greece
Distance from station: SSE 297km
Updated: 17/08/2022 03:50
Clear
Clear
 Wind from varies
Wind: varies 4 km/h
Temperature: 25°C
Dew Point: 17°C
Humidity: 61%
Barometer: 1010 hPa
Summary: Clear
Visibility: greater than 10 km
2022/08/17 00:50 LGEL 170050Z VRB02KT CAVOK 25/17 Q1010
 
LGAD - Andravida (civ/A, Greece
Distance from station: SSW 301km
Updated: 17/08/2022 03:50
Few Clouds
Few Clouds
 Wind from calm
Wind: Calm
Temperature: 23°C
Dew Point: 21°C
Humidity: 89%
Barometer: 1012 hPa
Clouds: Few Clouds
Visibility: 10 km
Cloud details: Few Clouds 610 m
2022/08/17 00:50 LGAD 170050Z 00000KT 9999 FEW020 23/21 Q1012
LGKF - Kefallinia, Greece
Distance from station: SSW 305km
Updated: 16/08/2022 23:50
NOT Current
Partly cloudy
Partly cloudy
 Wind from calm
Wind: Calm
Temperature: 26°C
Dew Point: 24°C
Humidity: 89%
Barometer: 1013 hPa
Clouds: Partly cloudy
Visibility: 10 km
Cloud details: Partly cloudy 366 m
2022/08/16 20:50 LGKF 162050Z 00000KT 9999 SCT012 26/24 Q1013